Time;durP1;ratioP1;P1;durP2;ratioP2;P2;SDS_P1;SDS_P2;PMS_P1;PMS_P2;Temp;Humidity;BMP_temperature;BMP_pressure;BME280_temperature;BME280_humidity;BME280_pressure;Samples;Min_cycle;Max_cycle;Signal;HPM_P1;HPM_P2
2022/06/26 00:00:49;;;;;;;1.70;1.40;;;;;;;19.60;100.00;96143.09;4945774;28;20261;-79
2022/06/26 00:03:16;;;;;;;2.45;1.75;;;;;;;19.60;100.00;96137.63;4958748;28;20200;-78
2022/06/26 00:05:43;;;;;;;2.72;1.55;;;;;;;19.57;100.00;96146.41;4949935;28;20215;-78
2022/06/26 00:08:10;;;;;;;5.65;1.40;;;;;;;19.58;100.00;96148.06;4946611;28;20214;-78
2022/06/26 00:10:37;;;;;;;3.10;1.40;;;;;;;19.62;100.00;96148.31;4955903;28;20209;-78
2022/06/26 00:13:06;;;;;;;1.60;1.50;;;;;;;19.57;100.00;96143.69;4945388;28;20210;-78
2022/06/26 00:15:33;;;;;;;1.92;1.63;;;;;;;19.49;100.00;96151.72;4953248;28;20308;-79
2022/06/26 00:18:00;;;;;;;2.85;1.40;;;;;;;19.60;100.00;96154.06;4966171;28;20229;-79
2022/06/26 00:20:27;;;;;;;1.73;1.50;;;;;;;19.58;100.00;96150.78;4948652;28;20311;-78
2022/06/26 00:22:54;;;;;;;5.00;1.87;;;;;;;19.50;100.00;96143.22;4958864;28;20193;-78
2022/06/26 00:25:21;;;;;;;2.47;1.70;;;;;;;19.57;100.00;96157.38;4946852;28;20204;-79
2022/06/26 00:27:48;;;;;;;1.88;1.23;;;;;;;19.58;100.00;96141.75;4963889;28;20213;-79
2022/06/26 00:30:17;;;;;;;2.92;1.50;;;;;;;19.69;100.00;96150.69;4963533;28;20209;-78
2022/06/26 00:32:44;;;;;;;2.97;1.55;;;;;;;19.68;100.00;96147.13;4964979;28;20205;-79
2022/06/26 00:35:11;;;;;;;1.58;1.30;;;;;;;19.75;100.00;96154.97;4948292;28;20307;-78
2022/06/26 00:37:38;;;;;;;3.45;1.70;;;;;;;19.76;100.00;96154.69;4941090;28;20224;-79
2022/06/26 00:40:07;;;;;;;3.35;1.67;;;;;;;19.74;100.00;96158.81;4946587;28;20205;-79
2022/06/26 00:42:34;;;;;;;1.70;1.60;;;;;;;19.80;100.00;96157.66;4946831;28;20205;-79
2022/06/26 00:45:01;;;;;;;2.95;1.58;;;;;;;19.85;100.00;96154.84;4958828;28;20317;-79
2022/06/26 00:47:30;;;;;;;2.42;1.52;;;;;;;19.93;100.00;96157.75;4939203;28;20200;-79
2022/06/26 00:50:00;;;;;;;1.55;1.35;;;;;;;19.96;100.00;96162.66;4942777;28;20578;-79
2022/06/26 00:52:28;;;;;;;2.17;1.30;;;;;;;20.01;100.00;96153.53;4953296;28;20202;-78
2022/06/26 00:54:56;;;;;;;1.70;1.60;;;;;;;20.07;100.00;96162.53;4946243;28;20254;-79
2022/06/26 00:57:23;;;;;;;1.60;1.50;;;;;;;20.03;100.00;96151.31;4949087;28;20244;-78
2022/06/26 00:59:51;;;;;;;1.73;1.40;;;;;;;20.03;100.00;96154.06;4944164;28;20299;-79
2022/06/26 01:02:19;;;;;;;1.88;1.42;;;;;;;19.99;100.00;96150.28;4936053;28;20202;-78
2022/06/26 01:04:47;;;;;;;2.53;1.52;;;;;;;19.98;100.00;96160.44;4941411;28;20236;-78
2022/06/26 01:07:14;;;;;;;1.77;1.30;;;;;;;19.98;100.00;96159.63;4956537;28;20217;-78
2022/06/26 01:09:42;;;;;;;1.73;1.60;;;;;;;20.01;100.00;96161.75;4959043;28;20209;-79
2022/06/26 01:12:09;;;;;;;1.80;1.40;;;;;;;20.12;100.00;96157.78;4942228;28;20280;-79
2022/06/26 01:14:37;;;;;;;1.42;1.27;;;;;;;20.10;100.00;96157.25;4946960;28;20610;-79
2022/06/26 01:17:04;;;;;;;1.45;1.33;;;;;;;20.09;100.00;96152.06;4955981;28;20236;-79
2022/06/26 01:19:32;;;;;;;2.45;1.70;;;;;;;20.05;100.00;96151.03;4947857;28;20209;-79
2022/06/26 01:22:01;;;;;;;2.97;1.50;;;;;;;20.00;100.00;96141.75;4949814;28;20205;-78
2022/06/26 01:24:29;;;;;;;1.55;1.45;;;;;;;20.02;100.00;96141.47;4950799;28;20216;-79
2022/06/26 01:26:56;;;;;;;2.20;1.50;;;;;;;20.00;100.00;96139.03;4956350;28;20215;-79
2022/06/26 01:29:24;;;;;;;1.40;1.30;;;;;;;20.04;100.00;96142.00;4948885;28;20303;-79
2022/06/26 01:31:51;;;;;;;2.03;1.55;;;;;;;20.07;100.00;96138.69;4961102;28;20321;-79
2022/06/26 01:34:18;;;;;;;1.63;1.52;;;;;;;20.14;100.00;96132.81;4952569;28;20216;-79
2022/06/26 01:36:45;;;;;;;2.10;1.60;;;;;;;20.13;100.00;96129.25;4940707;28;20264;-79
2022/06/26 01:39:13;;;;;;;2.80;1.55;;;;;;;20.09;100.00;96128.22;4950363;28;20239;-79
2022/06/26 01:41:41;;;;;;;2.70;1.38;;;;;;;19.98;100.00;96127.56;4950134;28;20232;-78
2022/06/26 01:44:09;;;;;;;1.42;1.33;;;;;;;19.96;100.00;96126.22;4953479;28;20303;-78
2022/06/26 01:46:37;;;;;;;1.92;1.48;;;;;;;19.91;100.00;96115.31;4966353;28;20243;-79
2022/06/26 01:49:04;;;;;;;2.03;1.50;;;;;;;19.91;100.00;96115.31;4953114;28;20205;-79
2022/06/26 01:51:35;;;;;;;1.50;1.40;;;;;;;19.82;100.00;96111.63;4962351;28;20228;-78
2022/06/26 01:54:02;;;;;;;3.40;1.65;;;;;;;19.77;100.00;96103.44;4946953;28;20232;-78
2022/06/26 01:56:30;;;;;;;1.70;1.60;;;;;;;19.81;100.00;96110.81;4965912;28;20217;-79
2022/06/26 01:58:58;;;;;;;3.28;1.40;;;;;;;19.84;100.00;96114.84;4947449;28;20247;-78
2022/06/26 02:01:33;;;;;;;1.90;1.50;;;;;;;19.88;100.00;96119.47;4956407;28;20201;-79
2022/06/26 02:04:00;;;;;;;2.75;1.50;;;;;;;19.74;100.00;96117.72;4959448;28;20299;-79
2022/06/26 02:06:27;;;;;;;4.55;1.95;;;;;;;19.58;100.00;96117.13;4948998;28;20200;-79
2022/06/26 02:08:56;;;;;;;3.67;1.90;;;;;;;19.44;100.00;96119.72;4951461;28;20217;-78
2022/06/26 02:14:10;;;;;;;3.88;1.70;;;;;;;19.17;100.00;96122.22;4962180;28;20213;-79
2022/06/26 02:16:44;;;;;;;3.37;1.90;;;;;;;19.17;100.00;96116.75;4948059;28;20204;-78
2022/06/26 02:19:12;;;;;;;4.75;1.70;;;;;;;19.23;100.00;96127.34;4946462;28;20240;-79
2022/06/26 02:21:40;;;;;;;2.23;1.60;;;;;;;19.27;100.00;96109.25;4951202;28;20219;-79
2022/06/26 02:24:08;;;;;;;2.70;1.67;;;;;;;19.28;100.00;96110.88;4950092;28;20205;-79
2022/06/26 02:26:35;;;;;;;2.78;1.80;;;;;;;19.26;100.00;96121.28;4952867;28;20201;-79
2022/06/26 02:29:02;;;;;;;2.45;1.73;;;;;;;19.21;100.00;96115.06;4950669;28;20280;-79
2022/06/26 02:31:31;;;;;;;3.60;2.03;;;;;;;19.13;100.00;96115.69;4959474;28;20198;-79
2022/06/26 02:33:58;;;;;;;2.77;2.00;;;;;;;19.05;100.00;96102.66;4945781;28;20228;-79
2022/06/26 02:36:25;;;;;;;1.70;1.60;;;;;;;19.07;100.00;96097.69;4947884;28;20229;-79
2022/06/26 02:38:52;;;;;;;2.80;1.70;;;;;;;19.05;100.00;96099.91;4936375;28;20254;-79
2022/06/26 02:41:19;;;;;;;2.67;1.70;;;;;;;19.05;100.00;96091.72;4952028;28;20251;-79
2022/06/26 02:43:48;;;;;;;2.77;1.70;;;;;;;19.05;100.00;96080.75;4949147;28;20208;-79
2022/06/26 02:46:15;;;;;;;2.23;1.60;;;;;;;19.07;100.00;96071.13;4946612;28;20201;-79
2022/06/26 02:48:46;;;;;;;2.03;1.80;;;;;;;19.09;100.00;96071.66;4943564;28;20209;-79
2022/06/26 02:51:13;;;;;;;1.87;1.47;;;;;;;19.04;100.00;96068.19;4944479;28;20244;-79
2022/06/26 02:53:40;;;;;;;2.13;1.60;;;;;;;19.04;100.00;96079.13;4956051;28;20208;-79
2022/06/26 02:56:07;;;;;;;1.65;1.52;;;;;;;18.99;100.00;96071.78;4946178;28;20234;-79
2022/06/26 02:58:35;;;;;;;2.30;1.70;;;;;;;18.96;100.00;96071.56;4948439;28;20236;-78
2022/06/26 03:01:03;;;;;;;3.07;1.60;;;;;;;18.86;100.00;96061.53;4940789;28;20595;-79
2022/06/26 03:03:31;;;;;;;2.00;1.60;;;;;;;18.84;100.00;96070.03;4954938;28;20219;-79
2022/06/26 03:05:59;;;;;;;2.07;1.70;;;;;;;18.76;100.00;96070.66;4947846;28;20227;-79
2022/06/26 03:08:27;;;;;;;3.57;1.70;;;;;;;18.75;100.00;96073.66;4947931;28;20201;-79
2022/06/26 03:10:54;;;;;;;1.87;1.50;;;;;;;18.74;100.00;96070.13;4962686;28;20288;-79
2022/06/26 03:13:23;;;;;;;1.80;1.63;;;;;;;18.63;100.00;96057.63;4950159;28;20215;-79
2022/06/26 03:15:50;;;;;;;4.07;1.70;;;;;;;18.50;100.00;96063.75;4951813;28;20216;-79
2022/06/26 03:18:19;;;;;;;2.73;1.70;;;;;;;18.37;100.00;96057.03;4948741;28;20221;-78
2022/06/26 03:20:46;;;;;;;2.40;1.70;;;;;;;18.35;100.00;96058.44;4956344;28;20348;-79
2022/06/26 03:23:14;;;;;;;2.37;1.60;;;;;;;18.38;100.00;96052.38;4944100;28;20224;-78
2022/06/26 03:25:41;;;;;;;1.70;1.57;;;;;;;18.38;100.00;96044.16;4940266;28;20197;-79
2022/06/26 03:28:09;;;;;;;2.93;1.60;;;;;;;18.35;100.00;96044.75;4949186;28;20205;-79
2022/06/26 03:30:45;;;;;;;2.53;1.63;;;;;;;18.36;100.00;96033.53;4963089;28;20237;-79
2022/06/26 03:33:12;;;;;;;1.73;1.47;;;;;;;18.36;100.00;96038.19;4964604;28;20313;-79
2022/06/26 03:35:40;;;;;;;4.63;1.57;;;;;;;18.36;100.00;96035.47;4943226;28;20205;-79
2022/06/26 03:38:07;;;;;;;1.50;1.40;;;;;;;18.33;100.00;96036.03;4963376;28;20225;-79
2022/06/26 03:40:36;;;;;;;2.30;1.50;;;;;;;18.25;100.00;96023.81;4961204;28;20236;-79
2022/06/26 03:43:05;;;;;;;2.70;1.70;;;;;;;18.22;100.00;96029.00;4949299;28;20219;-79
2022/06/26 03:45:46;;;;;;;1.70;1.50;;;;;;;18.13;100.00;96024.16;4948736;28;20224;-79
2022/06/26 03:48:13;;;;;;;4.47;1.70;;;;;;;18.11;100.00;96022.84;4947732;28;20212;-79
2022/06/26 03:50:40;;;;;;;3.23;1.73;;;;;;;18.11;100.00;96020.09;4953906;28;20216;-79
2022/06/26 03:53:07;;;;;;;1.47;1.37;;;;;;;18.11;100.00;96015.44;4955255;28;20205;-79
2022/06/26 03:55:36;;;;;;;2.33;1.43;;;;;;;18.06;100.00;96018.22;4964422;28;20279;-79
2022/06/26 03:58:04;;;;;;;1.90;1.70;;;;;;;18.11;100.00;96020.91;4951791;28;20260;-79
2022/06/26 04:00:34;;;;;;;2.37;1.53;;;;;;;18.02;100.00;96008.16;4947347;28;20217;-78
2022/06/26 04:03:03;;;;;;;2.77;1.60;;;;;;;18.00;100.00;96005.69;4960504;28;20217;-79
2022/06/26 04:05:31;;;;;;;4.27;1.80;;;;;;;18.01;100.00;96009.25;4949026;28;20231;-78
2022/06/26 04:07:58;;;;;;;1.90;1.70;;;;;;;18.04;100.00;96012.22;4948420;28;20207;-78
2022/06/26 04:10:45;;;;;;;1.73;1.60;;;;;;;18.09;100.00;96014.09;4946747;28;20663;-79
2022/06/26 04:13:26;;;;;;;3.87;1.63;;;;;;;18.01;100.00;96010.06;4948481;28;20268;-79
2022/06/26 04:15:53;;;;;;;5.50;1.80;;;;;;;18.03;100.00;96010.56;4962519;28;20221;-79
2022/06/26 04:18:21;;;;;;;1.80;1.70;;;;;;;18.06;100.00;96009.19;4945888;28;20201;-79
2022/06/26 04:20:48;;;;;;;3.03;2.30;;;;;;;18.02;100.00;96006.25;4947007;28;20215;-79
2022/06/26 04:23:15;;;;;;;3.40;1.93;;;;;;;18.04;100.00;96004.00;4963979;28;20209;-79
2022/06/26 04:25:44;;;;;;;2.00;1.70;;;;;;;18.06;100.00;96003.72;4949667;28;20579;-79
2022/06/26 04:28:11;;;;;;;2.93;1.80;;;;;;;17.99;100.00;96009.53;4948348;28;20269;-79
2022/06/26 04:30:42;;;;;;;2.13;1.70;;;;;;;17.90;100.00;96010.41;4945404;28;20218;-79
2022/06/26 04:33:10;;;;;;;2.57;1.70;;;;;;;17.79;100.00;96006.94;4945206;28;20213;-79
2022/06/26 04:35:37;;;;;;;2.33;1.60;;;;;;;17.78;100.00;95997.09;4961221;28;20196;-79
2022/06/26 04:38:04;;;;;;;2.37;2.17;;;;;;;17.84;100.00;95998.72;4964314;28;20209;-79
2022/06/26 04:40:31;;;;;;;2.00;1.80;;;;;;;17.89;100.00;95995.13;4966639;28;20220;-79
2022/06/26 04:43:00;;;;;;;3.73;1.70;;;;;;;17.93;100.00;95999.75;4961114;28;20201;-79
2022/06/26 04:45:28;;;;;;;3.07;1.80;;;;;;;17.92;100.00;95994.56;4958109;28;20276;-79
2022/06/26 04:47:58;;;;;;;1.83;1.60;;;;;;;17.90;100.00;96008.50;4946525;28;20295;-79
2022/06/26 04:50:26;;;;;;;3.13;1.97;;;;;;;17.86;100.00;95991.06;4946124;28;20307;-79
2022/06/26 04:52:55;;;;;;;1.50;1.40;;;;;;;17.85;100.00;95985.88;4947659;28;20201;-79
2022/06/26 04:55:27;;;;;;;2.23;1.87;;;;;;;17.93;100.00;95988.81;4961458;28;20217;-79
2022/06/26 04:57:55;;;;;;;2.53;1.80;;;;;;;17.88;100.00;95990.75;4939058;28;20222;-79
2022/06/26 05:00:23;;;;;;;3.03;1.70;;;;;;;17.83;100.00;95994.38;4943791;28;20252;-79
2022/06/26 05:03:02;;;;;;;2.80;1.60;;;;;;;17.78;100.00;95991.66;4943151;28;20237;-78
2022/06/26 05:05:39;;;;;;;3.97;1.60;;;;;;;17.83;100.00;95990.81;4941290;28;20214;-79
2022/06/26 05:08:19;;;;;;;2.10;1.90;;;;;;;17.83;100.00;95996.28;4940892;28;20205;-79
2022/06/26 05:10:46;;;;;;;1.77;1.60;;;;;;;17.84;100.00;95996.00;4930783;29;20229;-79
2022/06/26 05:13:13;;;;;;;2.90;1.90;;;;;;;17.88;100.00;95980.66;4931777;28;20364;-79
2022/06/26 05:15:47;;;;;;;2.73;1.97;;;;;;;17.84;100.00;95984.25;4949612;28;20229;-79
2022/06/26 05:18:15;;;;;;;2.80;1.80;;;;;;;17.83;100.00;95994.38;4948073;28;20209;-79
2022/06/26 05:20:42;;;;;;;3.20;2.00;;;;;;;17.83;100.00;95988.91;4930747;29;20368;-79
2022/06/26 05:23:11;;;;;;;2.33;1.70;;;;;;;17.87;100.00;95984.47;4932250;29;20205;-79
2022/06/26 05:25:46;;;;;;;3.57;1.90;;;;;;;17.82;100.00;95987.25;4933550;28;20208;-79
2022/06/26 05:28:13;;;;;;;3.87;1.80;;;;;;;17.84;100.00;95992.44;4930981;29;20209;-79
2022/06/26 05:30:40;;;;;;;3.93;1.70;;;;;;;17.78;100.00;95992.47;4946464;28;20225;-79
2022/06/26 05:33:11;;;;;;;2.80;1.60;;;;;;;17.72;100.00;95988.16;4947253;28;20206;-79
2022/06/26 05:35:39;;;;;;;1.97;1.70;;;;;;;17.65;100.00;95984.94;4947490;29;20204;-79
2022/06/26 05:38:06;;;;;;;3.30;2.00;;;;;;;17.58;100.00;95986.31;4931588;29;20205;-79
2022/06/26 05:40:34;;;;;;;3.23;1.80;;;;;;;17.62;100.00;95987.41;4949759;28;20233;-79
2022/06/26 05:43:01;;;;;;;4.70;1.90;;;;;;;17.69;100.00;95983.25;4925930;29;20212;-79
2022/06/26 05:45:28;;;;;;;3.80;1.90;;;;;;;17.68;100.00;95975.38;4942226;28;20253;-79
2022/06/26 05:48:24;;;;;;;2.37;1.90;;;;;;;17.76;100.00;95966.56;4946922;28;20209;-79
2022/06/26 05:51:18;;;;;;;2.80;1.97;;;;;;;17.63;100.00;95970.75;4933981;29;20221;-79
2022/06/26 05:54:07;;;;;;;2.77;2.13;;;;;;;17.58;100.00;95975.41;4946308;28;20247;-79
2022/06/26 05:56:52;;;;;;;3.47;2.67;;;;;;;17.60;100.00;95974.03;4926213;28;20334;-79
2022/06/26 05:59:33;;;;;;;3.47;2.10;;;;;;;17.67;100.00;95962.81;4946243;28;20259;-79
2022/06/26 06:02:20;;;;;;;3.43;2.10;;;;;;;17.68;100.00;95964.44;4945517;28;20224;-77
2022/06/26 06:04:49;;;;;;;3.10;2.50;;;;;;;17.67;100.00;95969.09;4948247;28;20220;-77
2022/06/26 06:07:17;;;;;;;4.63;2.10;;;;;;;17.74;100.00;95963.28;4963093;28;20217;-78
2022/06/26 06:09:44;;;;;;;3.50;2.13;;;;;;;17.70;100.00;95962.22;4968298;28;20276;-78
2022/06/26 06:12:12;;;;;;;2.27;2.07;;;;;;;17.56;100.00;95950.28;4940050;28;20205;-78
2022/06/26 06:14:40;;;;;;;3.47;2.07;;;;;;;17.55;100.00;95949.47;4944897;28;20245;-79
2022/06/26 06:19:49;;;;;;;3.67;1.97;;;;;;;17.64;100.00;95956.00;4945006;28;20222;-77
2022/06/26 06:22:18;;;;;;;3.63;1.90;;;;;;;17.63;100.00;95950.81;4963707;28;20233;-77
2022/06/26 06:24:45;;;;;;;5.83;2.37;;;;;;;17.63;100.00;95957.09;4947597;28;20217;-77
2022/06/26 06:27:12;;;;;;;2.37;2.10;;;;;;;17.64;100.00;95957.91;4965191;28;20205;-77
2022/06/26 06:29:39;;;;;;;4.50;2.20;;;;;;;17.71;100.00;95952.94;4943324;28;20209;-77
2022/06/26 06:32:07;;;;;;;2.80;1.90;;;;;;;17.73;100.00;95940.63;4961757;28;20269;-77
2022/06/26 06:34:34;;;;;;;2.50;2.10;;;;;;;17.81;100.00;95952.03;4949364;28;20217;-77
2022/06/26 06:37:03;;;;;;;3.63;2.37;;;;;;;17.81;100.00;95946.56;4942885;28;20201;-77
2022/06/26 06:39:30;;;;;;;2.03;1.70;;;;;;;17.90;100.00;95940.22;4944255;28;20221;-77
2022/06/26 06:41:57;;;;;;;2.93;2.10;;;;;;;17.96;100.00;95950.00;4958887;28;20205;-77
2022/06/26 06:44:24;;;;;;;1.90;1.80;;;;;;;18.01;100.00;95941.78;4961992;28;20209;-77
2022/06/26 06:47:21;;;;;;;2.00;1.90;;;;;;;18.01;100.00;95946.41;4943088;28;20209;-77
2022/06/26 06:50:11;;;;;;;2.10;1.90;;;;;;;18.02;100.00;95950.78;4965079;28;20209;-77
2022/06/26 06:52:39;;;;;;;2.27;2.07;;;;;;;18.14;100.00;95948.47;4964224;28;20217;-77
2022/06/26 06:55:08;;;;;;;2.13;1.93;;;;;;;18.20;100.00;95947.34;4945762;28;20288;-77
2022/06/26 06:57:35;;;;;;;3.23;2.60;;;;;;;18.33;100.00;95951.31;4962149;28;20244;-77
2022/06/26 07:00:02;;;;;;;2.40;2.17;;;;;;;18.47;100.00;95955.78;4942777;28;20228;-77
2022/06/26 07:02:31;;;;;;;2.13;1.90;;;;;;;18.56;100.00;95941.47;4942995;28;20202;-79
2022/06/26 07:05:00;;;;;;;3.30;1.87;;;;;;;18.59;100.00;95947.22;4952261;28;20221;-79
2022/06/26 07:07:28;;;;;;;3.10;1.80;;;;;;;18.66;100.00;95955.06;4965181;28;20200;-79
2022/06/26 07:09:57;;;;;;;2.00;1.80;;;;;;;18.73;100.00;95961.00;4963115;28;20205;-79
2022/06/26 07:12:25;;;;;;;2.67;1.70;;;;;;;18.83;100.00;95952.69;4939185;28;20312;-79
2022/06/26 07:14:52;;;;;;;2.53;1.67;;;;;;;18.79;100.00;95957.94;4950787;28;20291;-78
2022/06/26 07:17:21;;;;;;;2.90;1.75;;;;;;;19.03;100.00;95962.56;4939670;28;20209;-79
2022/06/26 07:19:53;;;;;;;2.40;1.90;;;;;;;19.57;100.00;95964.84;4936754;28;20250;-80
2022/06/26 07:22:20;;;;;;;2.75;1.70;;;;;;;20.09;100.00;95969.25;4964621;28;20220;-80
2022/06/26 07:24:48;;;;;;;2.10;1.90;;;;;;;20.57;100.00;95969.00;4965621;28;20219;-80
2022/06/26 07:27:40;;;;;;;2.25;2.05;;;;;;;20.88;100.00;95970.03;4939493;28;20209;-80
2022/06/26 07:30:08;;;;;;;2.83;2.10;;;;;;;21.12;100.00;95984.34;4940156;28;20210;-80
2022/06/26 07:32:44;;;;;;;4.85;2.03;;;;;;;21.42;100.00;95984.88;4949938;28;20200;-80
2022/06/26 07:35:11;;;;;;;2.78;1.83;;;;;;;21.74;100.00;95987.44;4944105;28;20255;-80
2022/06/26 07:37:40;;;;;;;2.05;1.67;;;;;;;22.04;100.00;96001.59;4961276;28;20236;-80
2022/06/26 07:40:11;;;;;;;2.08;1.85;;;;;;;21.90;100.00;95990.63;4939232;28;20221;-80
2022/06/26 07:42:40;;;;;;;4.65;2.03;;;;;;;21.90;100.00;96002.44;4941569;28;20316;-80
2022/06/26 07:45:08;;;;;;;3.90;1.83;;;;;;;22.07;100.00;95996.31;4962256;28;20212;-80
2022/06/26 07:47:55;;;;;;;2.88;1.80;;;;;;;22.33;100.00;95988.25;4942277;28;20205;-80
2022/06/26 07:50:23;;;;;;;2.83;1.80;;;;;;;22.58;99.60;95981.25;4937676;28;20205;-79
2022/06/26 07:52:50;;;;;;;1.77;1.67;;;;;;;22.65;97.81;95979.69;4960639;28;20209;-79
2022/06/26 07:55:17;;;;;;;2.75;1.70;;;;;;;22.88;96.96;95971.41;4939524;28;20206;-79
2022/06/26 07:57:46;;;;;;;2.85;1.60;;;;;;;23.00;96.81;95974.34;4940322;28;20248;-79
2022/06/26 08:00:13;;;;;;;3.78;1.75;;;;;;;22.87;96.92;95969.78;4952628;28;20224;-79
2022/06/26 08:02:41;;;;;;;1.80;1.67;;;;;;;22.99;96.70;95972.72;4961399;28;20342;-79
2022/06/26 08:05:09;;;;;;;2.72;2.20;;;;;;;23.18;95.99;95965.03;4940201;28;20216;-79
2022/06/26 08:07:36;;;;;;;3.35;2.28;;;;;;;23.34;93.41;95963.44;4942898;28;20205;-79
2022/06/26 08:10:03;;;;;;;2.67;2.00;;;;;;;23.56;93.98;95965.28;4953147;28;20294;-79
2022/06/26 08:12:30;;;;;;;3.13;2.15;;;;;;;23.78;90.89;95961.59;4963756;28;20206;-80
2022/06/26 08:14:58;;;;;;;2.10;1.70;;;;;;;23.93;87.07;95969.38;4951036;28;20217;-79
2022/06/26 08:17:26;;;;;;;2.00;1.80;;;;;;;24.03;87.26;95976.50;4957584;28;20264;-79
2022/06/26 08:19:53;;;;;;;2.92;1.65;;;;;;;24.08;86.99;95976.34;4939746;28;20293;-79
2022/06/26 08:22:20;;;;;;;1.80;1.70;;;;;;;24.22;85.92;95984.50;4946603;28;20232;-79
2022/06/26 08:24:47;;;;;;;2.25;1.70;;;;;;;24.27;86.36;95976.03;4949386;28;20209;-79
2022/06/26 08:27:14;;;;;;;1.80;1.40;;;;;;;24.24;84.76;95976.72;4943965;28;20211;-79
2022/06/26 08:29:41;;;;;;;3.60;1.70;;;;;;;24.26;87.13;95977.16;4948356;28;20200;-79
2022/06/26 08:32:09;;;;;;;2.85;1.50;;;;;;;24.25;88.46;95970.84;4962232;28;20213;-79
2022/06/26 08:34:36;;;;;;;1.77;1.42;;;;;;;24.25;86.31;95970.03;4958889;28;20212;-79
2022/06/26 08:37:05;;;;;;;2.47;1.50;;;;;;;24.35;86.56;95972.44;4941723;28;20296;-79
2022/06/26 08:39:35;;;;;;;1.80;1.70;;;;;;;24.27;86.74;95968.56;4940903;28;20315;-79
2022/06/26 08:42:04;;;;;;;2.42;1.80;;;;;;;24.29;85.19;95977.34;4939475;28;20244;-78
2022/06/26 08:44:33;;;;;;;2.80;1.80;;;;;;;24.36;83.97;95974.06;4944021;28;20204;-79
2022/06/26 08:47:03;;;;;;;2.72;1.52;;;;;;;24.38;86.43;95971.81;4949132;28;20212;-78
2022/06/26 08:49:32;;;;;;;2.10;1.70;;;;;;;24.30;87.25;95973.44;4943083;28;20221;-79
2022/06/26 08:51:59;;;;;;;2.15;1.73;;;;;;;24.42;88.64;95975.53;4947786;28;20217;-79
2022/06/26 08:54:28;;;;;;;2.03;1.60;;;;;;;24.33;87.88;95969.25;4945358;28;20650;-79
2022/06/26 08:56:55;;;;;;;2.22;1.70;;;;;;;24.27;87.79;95984.31;4961193;28;20240;-79
2022/06/26 08:59:22;;;;;;;1.77;1.67;;;;;;;24.25;89.40;95981.06;4951279;28;20220;-79
2022/06/26 09:01:50;;;;;;;2.58;1.70;;;;;;;24.11;89.67;95971.00;4952206;28;20220;-78
2022/06/26 09:04:17;;;;;;;2.05;1.90;;;;;;;23.95;90.03;95988.38;4950490;28;20208;-79
2022/06/26 09:06:46;;;;;;;4.30;1.90;;;;;;;23.90;88.87;95985.78;4963181;28;20198;-78
2022/06/26 09:09:15;;;;;;;2.45;1.73;;;;;;;23.75;89.86;95987.84;4948039;28;20245;-79
2022/06/26 09:11:43;;;;;;;3.67;1.75;;;;;;;23.80;92.30;95986.09;4948719;28;20299;-79
2022/06/26 09:14:11;;;;;;;2.03;1.85;;;;;;;23.71;91.76;95983.31;4942608;28;20213;-79
2022/06/26 09:16:39;;;;;;;1.95;1.60;;;;;;;23.82;91.54;95983.84;4957093;28;20304;-79
2022/06/26 09:19:07;;;;;;;2.00;1.77;;;;;;;23.67;90.85;95988.66;4966447;28;20209;-79
2022/06/26 09:21:35;;;;;;;2.47;1.70;;;;;;;23.58;93.67;95976.00;4949561;28;20224;-78
2022/06/26 09:24:03;;;;;;;1.90;1.80;;;;;;;23.63;92.74;95982.19;4966995;28;20213;-79
2022/06/26 09:26:30;;;;;;;2.00;1.80;;;;;;;23.53;91.66;95989.94;4951587;28;20216;-79
2022/06/26 09:29:08;;;;;;;1.70;1.60;;;;;;;23.55;93.80;95973.91;4964396;28;20216;-79
2022/06/26 09:31:37;;;;;;;2.17;1.67;;;;;;;23.71;91.97;95983.31;4950340;28;20291;-79
2022/06/26 09:34:05;;;;;;;2.47;1.90;;;;;;;23.94;90.41;95990.31;4952017;28;20204;-79
2022/06/26 09:36:32;;;;;;;3.95;1.60;;;;;;;24.06;91.20;95979.44;4968265;28;20293;-79
2022/06/26 09:38:59;;;;;;;2.60;1.90;;;;;;;23.92;89.45;95981.53;4949860;28;20210;-79
2022/06/26 09:41:32;;;;;;;1.92;1.83;;;;;;;24.06;88.02;95982.22;4952452;28;20238;-79
2022/06/26 09:43:59;;;;;;;1.70;1.60;;;;;;;24.07;89.44;95975.53;4973891;28;20276;-79
2022/06/26 09:46:31;;;;;;;3.50;1.80;;;;;;;24.28;88.23;95981.22;4950735;28;20484;-79
2022/06/26 09:48:59;;;;;;;2.40;2.03;;;;;;;24.56;89.16;95978.91;4950164;28;20205;-79
2022/06/26 09:51:27;;;;;;;1.92;1.70;;;;;;;24.91;87.69;95981.59;4946973;28;20214;-79
2022/06/26 09:53:55;;;;;;;3.25;1.83;;;;;;;25.02;84.39;95972.59;4953389;28;20253;-79
2022/06/26 09:56:22;;;;;;;1.60;1.50;;;;;;;25.02;84.30;95966.28;4957383;28;20333;-79
2022/06/26 09:58:52;;;;;;;2.15;1.77;;;;;;;25.08;82.82;95960.25;4949129;28;20233;-80
2022/06/26 10:06:52;;;;;;;1.60;1.50;;;;;;;25.43;83.75;95963.66;4944540;28;20205;-80
2022/06/26 10:09:21;;;;;;;2.38;1.80;;;;;;;25.47;80.33;95961.81;4950977;28;20209;-80
2022/06/26 10:11:48;;;;;;;1.73;1.63;;;;;;;25.51;81.34;95975.78;4950664;28;20209;-79
2022/06/26 10:14:19;;;;;;;1.83;1.73;;;;;;;25.62;78.36;95975.06;4961479;28;20201;-79
2022/06/26 10:17:19;;;;;;;2.30;1.55;;;;;;;25.61;79.71;95973.44;4947095;29;20209;-80
2022/06/26 10:19:51;;;;;;;2.08;1.60;;;;;;;25.67;78.16;95960.25;4938861;28;20213;-80
2022/06/26 10:22:19;;;;;;;2.88;1.80;;;;;;;25.79;77.71;95965.84;4942592;28;20312;-80
2022/06/26 10:24:54;;;;;;;2.10;1.73;;;;;;;25.76;79.11;95985.09;4953416;28;20201;-80
2022/06/26 10:27:27;;;;;;;3.20;1.90;;;;;;;25.74;80.37;95974.34;4962951;28;20208;-80
2022/06/26 10:30:08;;;;;;;3.83;1.88;;;;;;;25.89;78.67;95972.94;4967018;28;20213;-80
2022/06/26 10:32:35;;;;;;;2.15;1.67;;;;;;;26.03;77.23;95980.97;4973148;28;20212;-80
2022/06/26 10:35:03;;;;;;;2.00;1.88;;;;;;;26.17;75.98;95979.56;4963716;28;20201;-80
2022/06/26 10:37:41;;;;;;;2.90;1.67;;;;;;;26.31;75.39;95974.56;4942308;28;20296;-80
2022/06/26 10:40:14;;;;;;;2.45;2.20;;;;;;;26.23;77.97;95969.88;4966952;28;20299;-80
2022/06/26 10:42:53;;;;;;;2.38;2.17;;;;;;;26.42;78.10;95974.16;4937571;29;20233;-80
2022/06/26 10:45:28;;;;;;;2.88;2.33;;;;;;;26.65;73.06;95975.38;4946625;28;20216;-80
2022/06/26 10:47:57;;;;;;;2.60;2.10;;;;;;;26.85;72.13;95979.22;4942332;28;20241;-80
2022/06/26 10:50:32;;;;;;;2.10;1.70;;;;;;;26.70;72.53;95967.66;4952947;28;20210;-80
2022/06/26 10:53:15;;;;;;;2.40;2.20;;;;;;;26.96;71.80;95961.03;4950854;28;20224;-80
2022/06/26 10:55:46;;;;;;;1.70;1.60;;;;;;;27.13;72.01;95971.09;4967724;28;20236;-80
2022/06/26 10:58:20;;;;;;;1.85;1.70;;;;;;;27.08;71.33;95964.63;4950456;28;20240;-80
2022/06/26 11:00:49;;;;;;;1.80;1.70;;;;;;;27.10;70.13;95967.88;4948182;28;20263;-80
2022/06/26 11:03:17;;;;;;;1.80;1.70;;;;;;;27.19;69.46;95956.66;4953545;28;20213;-80
2022/06/26 11:05:59;;;;;;;1.70;1.60;;;;;;;27.05;70.53;95958.97;4964431;28;20213;-80
2022/06/26 11:08:31;;;;;;;2.05;1.80;;;;;;;27.21;69.25;95950.78;4968236;28;20197;-80
2022/06/26 11:11:05;;;;;;;2.25;1.80;;;;;;;27.32;68.95;95949.97;4950095;28;20311;-80
2022/06/26 11:13:33;;;;;;;1.70;1.60;;;;;;;27.44;69.38;95932.50;4940738;28;20208;-80
2022/06/26 11:16:02;;;;;;;2.03;1.55;;;;;;;27.55;68.77;95933.69;4967747;28;20201;-80
2022/06/26 11:18:34;;;;;;;2.55;1.70;;;;;;;27.82;66.77;95932.91;4950452;28;20295;-80
2022/06/26 11:21:02;;;;;;;1.60;1.50;;;;;;;27.88;66.94;95927.16;4948036;28;20254;-80
2022/06/26 11:23:31;;;;;;;1.60;1.50;;;;;;;28.02;66.86;95928.34;4952687;28;20299;-80
2022/06/26 11:26:01;;;;;;;1.88;1.77;;;;;;;28.06;64.97;95925.69;4963466;28;20243;-80
2022/06/26 11:28:29;;;;;;;2.83;1.60;;;;;;;28.13;65.20;95910.06;4950886;28;20223;-80
2022/06/26 11:30:57;;;;;;;2.10;1.77;;;;;;;28.32;64.73;95912.22;4950135;28;20213;-81
2022/06/26 11:33:28;;;;;;;1.65;1.55;;;;;;;28.57;64.68;95897.03;4967167;28;20291;-81
2022/06/26 11:36:01;;;;;;;2.75;1.70;;;;;;;28.63;64.35;95899.53;4951668;28;20212;-81
2022/06/26 11:38:28;;;;;;;2.20;2.00;;;;;;;28.45;63.49;95891.53;4953576;28;20265;-81
2022/06/26 11:40:59;;;;;;;2.53;1.98;;;;;;;28.52;65.12;95885.34;4950931;28;20303;-81
2022/06/26 11:43:26;;;;;;;3.08;1.67;;;;;;;28.70;64.71;95883.03;4961721;28;20227;-80
2022/06/26 11:45:54;;;;;;;1.90;1.73;;;;;;;28.80;66.31;95888.91;4960067;28;20197;-81
2022/06/26 11:48:21;;;;;;;2.20;1.67;;;;;;;28.96;64.44;95886.13;4948469;28;20209;-81
2022/06/26 11:50:53;;;;;;;2.47;1.95;;;;;;;29.13;63.82;95882.97;4952863;28;20211;-81